Aérodrome :
LOGIN :

S'inscrire | Disclaimer

   EN    FR    IT 

 










Légende :    VFR   VFR Marginal   IFR   IFR Intensif   IFR Très Intensif
Visi : 
Plafond : 
>= 8 km
>= 3000ft
5 à 8 km
1000 à 3000 ft
1500m à 5 km
500 à 1000 ft
800 à 1500m
200 à 500 ft
< 800m
< 200 ft
Symboles :   Orages  Brouillard  Fortes neiges  Fortes précipitations  Vent > 20 kt
SIGMETs :   Divers  Orages  Givrage  Turbulence  Onde Orograph.  Cendres Volcan.






- Altitude de l'aérodrome : 74 ft
- Code IATA : EIN


EHEH - Eindhoven

DERNIER METAR :
  • 220950Z AUTO 24010KT 200V320 9999 BKN021 OVC025 18/13 Q1013 WHT NOSIG RMK TREND REMOTE BY EHWX

METARs EXPIRÉS :
  • 220925Z AUTO 25009KT 200V300 9999 SCT020 OVC024 18/13 Q1013 WHT TEMPO SCT016
  • 220855Z AUTO 24010KT 210V280 9999 FEW019 BKN024 OVC028 18/13 Q1013 WHT TEMPO SCT016
  • 220839Z AUTO 25009KT 190V290 9999 SCT020 BKN025 BKN029 17/12 Q1012 WHT TEMPO SCT016
  • 220825Z AUTO 25009KT 200V310 9999 BKN020 OVC024 17/12 Q1012 WHT TEMPO SCT016
  • 220803Z AUTO 24008KT 210V310 9999 FEW019 BKN023 OVC026 17/12 Q1012 WHT TEMPO SCT016
  • 220732Z AUTO 23009KT 200V280 9999 SCT017 BKN021 BKN027 16/12 Q1012 WHT TEMPO SCT016
  • 220728Z AUTO 23009KT 190V270 9999 FEW017 SCT021 BKN027 16/12 Q1012 WHT TEMPO SCT016
  • 220715Z AUTO 23010KT 170V290 9999 SCT028 OVC210 17/12 Q1012 BLU TEMPO SCT016 RMK TREND REMOTE BY EHWX
  • 220655Z AUTO 23010KT 200V270 9999 FEW017 OVC170 15/12 Q1012 BLU TEMPO SCT016
  • 220625Z AUTO 23010KT 200V270 9999 OVC130 15/12 Q1012 BLU NOSIG
  • 220555Z AUTO 23009KT 180V270 9999 OVC140 15/12 Q1012 BLU NOSIG
  • 220525Z AUTO 23008KT 190V270 9999 OVC120 14/12 Q1012 BLU NOSIG

TAF TAF EHEH
Valide du 22 à 06h jusqu'au 23 à 12h UTC


220512Z 2206/2312 22007KT CAVOK
PROB40
TEMPO 2207/2210 SCT015 BKN020
PROB40
TEMPO 2214/2217 SCT025CB
BECMG 2223/2302 2500 BR MIFG
PROB40 2301/2304 0800 FG
BECMG 2304/2306 9999 NSW
BECMG 2309/2311 31005KT



MET'MAP, la Météo Aéronautique d'un coup d'oeil ! - Copyright ORBIFLY Décembre 2007 - Disclaimer

ORBIFLY MET'MAP TEAM :

Programmation & Développement : Alexandra Zaïnal
Sur une idée originale de : Baudouin d'Aumeries
Soutien technique & logistique : Manuel Goepfert
Assistance : Marc-Olivier Méhu




SOURCES & CREDITS :

   NOAA